createdAt,value
2022-08-01T00:00:43.977Z,48.09
2022-08-01T00:01:43.950Z,38.64
2022-08-01T00:02:44.022Z,36.79
2022-08-01T00:03:43.953Z,52.76
2022-08-01T00:04:43.957Z,45.41
2022-08-01T00:05:43.927Z,42.81
2022-08-01T00:06:43.919Z,51.24
2022-08-01T00:07:43.906Z,36.42
2022-08-01T00:08:43.910Z,42.31
2022-08-01T00:09:43.921Z,40.63
2022-08-01T00:10:43.891Z,49.58
2022-08-01T00:11:43.876Z,52.42
2022-08-01T00:12:43.862Z,39.31
2022-08-01T00:13:43.862Z,42.31
2022-08-01T00:14:43.881Z,42.43
2022-08-01T00:15:51.787Z,40.55
2022-08-01T00:16:44.842Z,58.92
2022-08-01T00:17:43.832Z,44.36
2022-08-01T00:18:43.823Z,42.58
2022-08-01T00:19:43.849Z,48.35
2022-08-01T00:20:43.804Z,45.49
2022-08-01T00:21:51.989Z,45.00
2022-08-01T00:22:44.787Z,58.97
2022-08-01T00:23:43.780Z,48.40
2022-08-01T00:24:43.807Z,45.03
2022-08-01T00:25:43.768Z,50.28
2022-08-01T00:26:43.776Z,46.04
2022-08-01T00:27:43.752Z,47.74
2022-08-01T00:28:43.738Z,48.76
2022-08-01T00:30:12.645Z,51.09
2022-08-01T00:30:44.726Z,50.65
2022-08-01T00:31:43.717Z,50.76
2022-08-01T00:32:43.715Z,52.67
2022-08-01T00:33:43.704Z,50.67
2022-08-01T00:34:43.721Z,41.35
2022-08-01T00:35:43.687Z,42.52
2022-08-01T00:36:43.676Z,42.22
2022-08-01T00:37:43.662Z,49.43
2022-08-01T00:38:44.660Z,39.51
2022-08-01T00:39:43.680Z,35.14
2022-08-01T00:40:43.636Z,44.08
2022-08-01T00:41:43.644Z,42.45
2022-08-01T00:42:43.947Z,39.07
2022-08-01T00:43:44.625Z,44.28
2022-08-01T00:44:43.636Z,57.94
2022-08-01T00:45:43.605Z,48.55
2022-08-01T00:46:43.596Z,35.67
2022-08-01T00:47:43.592Z,35.59
2022-08-01T00:48:43.585Z,52.47
2022-08-01T00:49:43.602Z,57.07
2022-08-01T00:50:43.571Z,37.77
2022-08-01T00:51:43.557Z,35.48
2022-08-01T00:52:43.556Z,54.06
2022-08-01T00:53:50.969Z,38.20
2022-08-01T00:54:44.567Z,45.81
2022-08-01T00:55:43.526Z,56.74
2022-08-01T00:56:43.524Z,40.24
2022-08-01T00:58:05.471Z,41.58
2022-08-01T00:58:44.501Z,34.95
2022-08-01T00:59:43.650Z,44.92
2022-08-01T01:00:52.743Z,35.28
2022-08-01T01:01:46.895Z,35.83
2022-08-01T01:02:44.473Z,40.80
2022-08-01T01:03:58.603Z,34.44
2022-08-01T01:04:45.484Z,40.61
2022-08-01T01:05:43.448Z,49.71
2022-08-01T01:06:43.471Z,52.77
2022-08-01T01:07:49.503Z,56.20
2022-08-01T01:08:44.425Z,40.41
2022-08-01T01:09:43.441Z,39.78
2022-08-01T01:10:43.413Z,40.51
2022-08-01T01:11:43.400Z,47.87
2022-08-01T01:12:45.890Z,44.82
2022-08-01T01:13:49.640Z,39.91
2022-08-01T01:14:44.407Z,51.37
2022-08-01T01:15:43.380Z,51.10
2022-08-01T01:16:43.365Z,42.43
2022-08-01T01:17:51.130Z,46.14
2022-08-01T01:18:44.349Z,47.87
2022-08-01T01:19:43.368Z,37.34
2022-08-01T01:20:43.334Z,36.65
2022-08-01T01:21:43.329Z,56.67
2022-08-01T01:22:43.330Z,39.04
2022-08-01T01:23:43.312Z,49.07
2022-08-01T01:24:43.303Z,40.33
2022-08-01T01:25:43.313Z,55.44
2022-08-01T01:26:43.285Z,43.71
2022-08-01T01:27:43.282Z,47.43
2022-08-01T01:28:44.030Z,46.64
2022-08-01T01:29:59.840Z,49.32
2022-08-01T01:30:44.277Z,41.80
2022-08-01T01:31:43.251Z,54.54
2022-08-01T01:32:43.247Z,41.34
2022-08-01T01:33:47.255Z,35.62
2022-08-01T01:34:43.228Z,38.71
2022-08-01T01:35:43.244Z,34.43
2022-08-01T01:36:43.227Z,54.65
2022-08-01T01:37:43.223Z,52.43
2022-08-01T01:38:43.218Z,36.52
2022-08-01T01:39:45.335Z,34.87
2022-08-01T01:40:44.929Z,53.03
2022-08-01T01:41:43.171Z,38.13
2022-08-01T01:42:43.178Z,51.15
2022-08-01T01:43:43.170Z,44.51
2022-08-01T01:44:43.152Z,52.77
2022-08-01T01:45:43.169Z,48.47
2022-08-01T01:46:43.134Z,49.60
2022-08-01T01:47:43.127Z,38.36
2022-08-01T01:48:43.116Z,38.95
2022-08-01T01:49:43.113Z,41.54
2022-08-01T01:50:43.126Z,36.19
2022-08-01T01:51:43.098Z,51.04
2022-08-01T01:52:44.090Z,34.61
2022-08-01T01:53:43.092Z,33.90
2022-08-01T01:54:43.074Z,43.70
2022-08-01T01:55:48.976Z,45.57
2022-08-01T01:56:44.069Z,44.62
2022-08-01T01:57:43.058Z,46.83
2022-08-01T01:58:43.037Z,53.70
2022-08-01T01:59:43.028Z,57.88
2022-08-01T02:00:43.064Z,48.06
2022-08-01T02:02:08.637Z,53.75
2022-08-01T02:02:44.055Z,55.55
2022-08-01T02:03:43.007Z,53.59
2022-08-01T02:04:42.996Z,55.37
2022-08-01T02:05:43.016Z,48.52
2022-08-01T02:06:42.986Z,49.72
2022-08-01T02:07:42.973Z,48.29
2022-08-01T02:08:42.966Z,53.83
2022-08-01T02:09:42.955Z,48.88
2022-08-01T02:10:42.975Z,57.30
2022-08-01T02:12:08.255Z,57.20
2022-08-01T02:12:43.940Z,53.92
2022-08-01T02:13:42.931Z,43.25
2022-08-01T02:14:42.917Z,61.00
2022-08-01T02:15:59.304Z,51.01
2022-08-01T02:16:43.901Z,46.44
2022-08-01T02:17:42.899Z,51.58
2022-08-01T02:18:42.888Z,39.31
2022-08-01T02:19:42.922Z,38.39
2022-08-01T02:20:42.909Z,41.34
2022-08-01T02:21:42.866Z,54.83
2022-08-01T02:22:42.857Z,54.31
2022-08-01T02:23:42.851Z,50.70
2022-08-01T02:24:42.841Z,52.98
2022-08-01T02:26:09.274Z,39.77
2022-08-01T02:26:43.822Z,43.27
2022-08-01T02:27:42.824Z,61.26
2022-08-01T02:28:42.810Z,41.96
2022-08-01T02:29:42.805Z,49.84
2022-08-01T02:30:42.830Z,42.41
2022-08-01T02:31:42.787Z,57.06
2022-08-01T02:32:42.787Z,47.30
2022-08-01T02:33:42.776Z,55.67
2022-08-01T02:34:42.766Z,56.75
2022-08-01T02:36:30.782Z,43.22
2022-08-01T02:36:43.751Z,46.39
2022-08-01T02:37:46.931Z,52.92
2022-08-01T02:38:42.735Z,46.33
2022-08-01T02:39:42.722Z,58.44
2022-08-01T02:40:42.749Z,44.18
2022-08-01T02:41:42.709Z,46.56
2022-08-01T02:42:42.710Z,60.47
2022-08-01T02:43:42.695Z,45.50
2022-08-01T02:44:42.699Z,47.74
2022-08-01T02:45:42.715Z,54.35
2022-08-01T02:46:42.685Z,47.26
2022-08-01T02:47:42.665Z,54.02
2022-08-01T02:48:42.678Z,61.31
2022-08-01T02:49:42.659Z,48.76
2022-08-01T02:50:43.106Z,57.78
2022-08-01T02:51:42.630Z,48.69
2022-08-01T02:52:42.645Z,38.35
2022-08-01T02:53:44.705Z,49.98
2022-08-01T02:54:42.616Z,54.77
2022-08-01T02:55:42.650Z,50.27
2022-08-01T02:56:42.605Z,47.63
2022-08-01T02:57:52.042Z,54.24
2022-08-01T02:58:43.580Z,59.10
2022-08-01T02:59:42.599Z,52.49
2022-08-01T03:00:42.563Z,49.50
2022-08-01T03:01:42.666Z,56.79
2022-08-01T03:02:42.542Z,53.51
2022-08-01T03:03:42.537Z,51.74
2022-08-01T03:04:42.536Z,52.84
2022-08-01T03:05:42.525Z,54.49
2022-08-01T03:06:44.384Z,59.52
2022-08-01T03:07:42.509Z,55.93
2022-08-01T03:08:42.495Z,59.33
2022-08-01T03:09:42.495Z,55.07
2022-08-01T03:10:42.479Z,56.74
2022-08-01T03:11:42.501Z,52.35
2022-08-01T03:12:42.468Z,52.89
2022-08-01T03:13:42.458Z,55.31
2022-08-01T03:14:42.451Z,59.26
2022-08-01T03:15:42.441Z,57.63
2022-08-01T03:16:42.461Z,55.51
2022-08-01T03:17:42.422Z,55.70
2022-08-01T03:18:42.413Z,51.45
2022-08-01T03:19:43.416Z,59.76
2022-08-01T03:20:42.407Z,56.21
2022-08-01T03:21:42.447Z,48.24
2022-08-01T03:22:42.388Z,62.49
2022-08-01T03:23:42.381Z,62.16
2022-08-01T03:24:42.370Z,55.75
2022-08-01T03:25:42.370Z,57.87
2022-08-01T03:26:42.382Z,61.13
2022-08-01T03:27:42.345Z,56.90
2022-08-01T03:28:42.341Z,55.97
2022-08-01T03:29:42.331Z,59.80
2022-08-01T03:30:42.325Z,58.59
2022-08-01T03:31:42.379Z,54.53
2022-08-01T03:32:42.310Z,59.33
2022-08-01T03:33:42.309Z,57.05
2022-08-01T03:34:42.298Z,56.27
2022-08-01T03:35:42.284Z,60.39
2022-08-01T03:36:42.335Z,57.43
2022-08-01T03:37:59.998Z,58.69
2022-08-01T03:38:44.264Z,54.97
2022-08-01T03:39:42.251Z,56.16
2022-08-01T03:40:42.244Z,59.13
2022-08-01T03:41:42.259Z,55.25
2022-08-01T03:42:42.229Z,57.27
2022-08-01T03:43:42.227Z,50.23
2022-08-01T03:44:42.209Z,56.36
2022-08-01T03:45:42.211Z,60.79
2022-08-01T03:46:42.219Z,57.81
2022-08-01T03:47:44.677Z,53.85
2022-08-01T03:48:42.179Z,54.09
2022-08-01T03:49:42.174Z,57.54
2022-08-01T03:50:42.163Z,59.30
2022-08-01T03:51:42.182Z,59.41
2022-08-01T03:52:42.154Z,59.78
2022-08-01T03:53:42.626Z,58.59
2022-08-01T03:54:42.128Z,59.93
2022-08-01T03:55:42.121Z,50.80
2022-08-01T03:56:42.143Z,60.64
2022-08-01T03:57:42.107Z,49.86
2022-08-01T03:58:42.096Z,58.71
2022-08-01T03:59:42.090Z,66.44
2022-08-01T04:00:42.083Z,70.18
2022-08-01T04:01:42.162Z,55.94
2022-08-01T04:02:42.068Z,64.23
2022-08-01T04:03:43.109Z,68.89
2022-08-01T04:04:42.055Z,58.71
2022-08-01T04:05:42.051Z,56.00
2022-08-01T04:06:42.042Z,59.73
2022-08-01T04:07:42.052Z,58.19
2022-08-01T04:08:42.023Z,59.31
2022-08-01T04:09:42.011Z,58.48
2022-08-01T04:10:42.005Z,59.04
2022-08-01T04:11:42.020Z,55.35
2022-08-01T04:12:42.013Z,56.58
2022-08-01T04:13:44.497Z,58.29
2022-08-01T04:14:41.972Z,62.78
2022-08-01T04:15:41.962Z,63.27
2022-08-01T04:16:41.956Z,56.21
2022-08-01T04:17:41.973Z,56.43
2022-08-01T04:18:41.944Z,62.41
2022-08-01T04:19:41.931Z,58.26
2022-08-01T04:20:41.922Z,60.33
2022-08-01T04:21:41.913Z,58.94
2022-08-01T04:22:41.933Z,59.96
2022-08-01T04:23:41.901Z,58.12
2022-08-01T04:24:41.890Z,60.51
2022-08-01T04:25:41.885Z,59.33
2022-08-01T04:26:41.882Z,59.97
2022-08-01T04:27:51.192Z,57.96
2022-08-01T04:28:42.875Z,60.35
2022-08-01T04:29:41.873Z,59.37
2022-08-01T04:30:41.853Z,61.43
2022-08-01T04:31:41.839Z,58.01
2022-08-01T04:32:41.861Z,61.31
2022-08-01T04:33:41.826Z,59.51
2022-08-01T04:34:41.814Z,62.19
2022-08-01T04:36:03.653Z,57.62
2022-08-01T04:36:42.807Z,59.46
2022-08-01T04:37:41.816Z,58.26
2022-08-01T04:38:41.786Z,59.99
2022-08-01T04:39:50.385Z,63.10
2022-08-01T04:40:42.772Z,60.90
2022-08-01T04:41:41.761Z,59.35
2022-08-01T04:42:41.776Z,61.30
2022-08-01T04:43:44.195Z,61.05
2022-08-01T04:44:41.735Z,59.19
2022-08-01T04:45:41.731Z,57.01
2022-08-01T04:46:41.727Z,60.75
2022-08-01T04:47:41.736Z,60.51
2022-08-01T04:48:41.706Z,63.22
2022-08-01T04:49:49.110Z,61.31
2022-08-01T04:50:42.690Z,58.52
2022-08-01T04:51:41.685Z,60.13
2022-08-01T04:52:41.703Z,60.87
2022-08-01T04:53:41.661Z,59.52
2022-08-01T04:54:41.660Z,59.69
2022-08-01T04:55:41.646Z,60.71
2022-08-01T04:56:41.638Z,62.74
2022-08-01T04:57:41.655Z,62.56
2022-08-01T04:58:41.627Z,61.91
2022-08-01T04:59:41.616Z,59.58
2022-08-01T05:00:41.618Z,54.96
2022-08-01T05:01:41.688Z,60.04
2022-08-01T05:02:41.618Z,60.76
2022-08-01T05:03:42.626Z,57.08
2022-08-01T05:04:41.588Z,51.74
2022-08-01T05:05:41.570Z,60.18
2022-08-01T05:06:41.564Z,57.52
2022-08-01T05:07:44.352Z,58.68
2022-08-01T05:08:41.609Z,59.82
2022-08-01T05:09:41.537Z,62.03
2022-08-01T05:10:41.535Z,57.26
2022-08-01T05:11:41.527Z,57.86
2022-08-01T05:12:41.515Z,59.90
2022-08-01T05:13:41.535Z,59.87
2022-08-01T05:14:41.497Z,60.41
2022-08-01T05:15:41.491Z,52.83
2022-08-01T05:16:41.484Z,60.95
2022-08-01T05:17:41.473Z,60.34
2022-08-01T05:18:41.491Z,58.74
2022-08-01T05:19:41.456Z,57.81
2022-08-01T05:20:41.452Z,61.01
2022-08-01T05:21:41.444Z,61.61
2022-08-01T05:22:41.439Z,59.86
2022-08-01T05:23:42.989Z,59.14
2022-08-01T05:24:41.424Z,55.67
2022-08-01T05:25:57.880Z,59.27
2022-08-01T05:26:42.409Z,57.99
2022-08-01T05:27:41.404Z,61.85
2022-08-01T05:28:41.419Z,59.46
2022-08-01T05:29:44.620Z,60.39
2022-08-01T05:30:42.375Z,60.44
2022-08-01T05:31:41.371Z,60.83
2022-08-01T05:32:41.359Z,60.53
2022-08-01T05:33:41.379Z,59.96
2022-08-01T05:34:41.344Z,57.72
2022-08-01T05:35:47.875Z,57.84
2022-08-01T05:36:42.330Z,60.95
2022-08-01T05:37:41.325Z,60.17
2022-08-01T05:38:41.336Z,61.40
2022-08-01T05:39:41.303Z,61.58
2022-08-01T05:40:41.298Z,55.71
2022-08-01T05:41:41.291Z,60.66
2022-08-01T05:42:41.289Z,64.00
2022-08-01T05:43:41.296Z,65.40
2022-08-01T05:44:41.269Z,62.46
2022-08-01T05:45:41.266Z,58.27
2022-08-01T05:46:41.247Z,58.04
2022-08-01T05:47:43.150Z,62.07
2022-08-01T05:48:41.259Z,59.33
2022-08-01T05:49:41.235Z,57.01
2022-08-01T05:50:41.231Z,60.55
2022-08-01T05:51:41.213Z,59.23
2022-08-01T05:52:41.205Z,59.16
2022-08-01T05:53:41.219Z,60.58
2022-08-01T05:54:41.185Z,58.61
2022-08-01T05:55:41.185Z,58.16
2022-08-01T05:56:41.181Z,58.62
2022-08-01T05:57:41.177Z,58.77
2022-08-01T05:58:41.182Z,57.65
2022-08-01T05:59:41.150Z,59.24
2022-08-01T06:00:41.146Z,54.03
2022-08-01T06:01:41.181Z,52.57
2022-08-01T06:02:41.192Z,57.65
2022-08-01T06:03:41.140Z,54.72
2022-08-01T06:04:41.111Z,56.75
2022-08-01T06:05:41.113Z,55.18
2022-08-01T06:06:41.100Z,56.94
2022-08-01T06:07:41.100Z,57.11
2022-08-01T06:08:41.106Z,55.48
2022-08-01T06:09:41.076Z,60.23
2022-08-01T06:10:41.056Z,58.08
2022-08-01T06:11:42.063Z,56.50
2022-08-01T06:12:41.052Z,58.12
2022-08-01T06:13:48.533Z,61.81
2022-08-01T06:14:42.032Z,61.00
2022-08-01T06:15:41.029Z,60.93
2022-08-01T06:16:41.018Z,56.89
2022-08-01T06:17:41.011Z,56.30
2022-08-01T06:18:41.027Z,57.85
2022-08-01T06:19:40.994Z,59.03
2022-08-01T06:20:41.017Z,50.96
2022-08-01T06:21:40.984Z,55.37
2022-08-01T06:22:40.971Z,58.09
2022-08-01T06:23:40.966Z,57.50
2022-08-01T06:24:40.984Z,53.55
2022-08-01T06:25:40.950Z,61.65
2022-08-01T06:26:40.946Z,68.27
2022-08-01T06:27:40.929Z,59.60
2022-08-01T06:28:40.926Z,54.71
2022-08-01T06:29:40.940Z,58.32
2022-08-01T06:30:41.911Z,52.60
2022-08-01T06:31:40.902Z,57.56
2022-08-01T06:32:40.890Z,58.15
2022-08-01T06:33:40.883Z,56.44
2022-08-01T06:34:40.921Z,54.77
2022-08-01T06:35:40.871Z,52.50
2022-08-01T06:36:40.861Z,59.38
2022-08-01T06:37:40.844Z,61.45
2022-08-01T06:38:41.846Z,65.27
2022-08-01T06:39:40.861Z,58.81
2022-08-01T06:40:40.827Z,54.30
2022-08-01T06:41:40.822Z,53.27
2022-08-01T06:42:40.813Z,59.22
2022-08-01T06:43:40.803Z,56.42
2022-08-01T06:44:40.826Z,56.36
2022-08-01T06:45:40.788Z,54.40
2022-08-01T06:46:40.778Z,60.32
2022-08-01T06:47:40.774Z,54.55
2022-08-01T06:48:40.773Z,55.59
2022-08-01T06:49:40.801Z,58.79
2022-08-01T06:50:40.750Z,55.63
2022-08-01T06:51:40.747Z,52.11
2022-08-01T06:52:40.738Z,58.28
2022-08-01T06:53:40.721Z,54.11
2022-08-01T06:54:40.742Z,60.14
2022-08-01T06:55:40.712Z,56.38
2022-08-01T06:56:40.701Z,54.79
2022-08-01T06:57:40.685Z,56.47
2022-08-01T06:58:41.689Z,59.45
2022-08-01T06:59:40.799Z,58.75
2022-08-01T07:00:41.690Z,58.75
2022-08-01T07:01:40.775Z,54.20
2022-08-01T07:02:40.657Z,60.90
2022-08-01T07:03:53.903Z,55.35
2022-08-01T07:04:41.669Z,57.04
2022-08-01T07:05:40.636Z,58.63
2022-08-01T07:06:40.624Z,52.19
2022-08-01T07:07:40.617Z,55.35
2022-08-01T07:08:40.615Z,52.06
2022-08-01T07:09:40.633Z,57.44
2022-08-01T07:10:40.593Z,58.14
2022-08-01T07:11:40.586Z,57.73
2022-08-01T07:12:40.572Z,57.90
2022-08-01T07:13:45.495Z,56.01
2022-08-01T07:14:40.586Z,56.89
2022-08-01T07:15:40.559Z,52.99
2022-08-01T07:16:40.562Z,57.04
2022-08-01T07:17:40.542Z,55.81
2022-08-01T07:18:40.538Z,57.40
2022-08-01T07:19:40.550Z,54.67
2022-08-01T07:20:51.825Z,57.44
2022-08-01T07:21:41.888Z,54.63
2022-08-01T07:22:41.501Z,59.67
2022-08-01T07:23:45.843Z,58.96
2022-08-01T07:24:41.543Z,53.75
2022-08-01T07:25:40.504Z,57.52
2022-08-01T07:26:52.986Z,55.74
2022-08-01T07:27:41.468Z,52.63
2022-08-01T07:28:43.948Z,59.55
2022-08-01T07:29:40.474Z,59.43
2022-08-01T07:30:40.445Z,56.73
2022-08-01T07:31:40.455Z,60.60
2022-08-01T07:32:40.425Z,57.17
2022-08-01T07:33:48.099Z,56.55
2022-08-01T07:34:41.438Z,55.38
2022-08-01T07:35:40.414Z,58.58
2022-08-01T07:36:40.417Z,60.20
2022-08-01T07:37:45.268Z,55.48
2022-08-01T07:38:41.381Z,58.61
2022-08-01T07:39:40.406Z,61.00
2022-08-01T07:40:40.368Z,55.76
2022-08-01T07:42:05.808Z,57.12
2022-08-01T07:42:41.349Z,59.44
2022-08-01T07:43:40.352Z,59.58
2022-08-01T07:44:40.359Z,57.86
2022-08-01T07:45:43.846Z,59.70
2022-08-01T07:46:41.321Z,58.17
2022-08-01T07:47:40.312Z,59.29
2022-08-01T07:48:40.320Z,56.05
2022-08-01T07:49:41.112Z,59.93
2022-08-01T07:50:41.293Z,60.32
2022-08-01T07:51:40.282Z,61.74
2022-08-01T07:52:40.274Z,57.96
2022-08-01T07:53:40.265Z,58.02
2022-08-01T07:54:40.292Z,60.62
2022-08-01T07:55:40.258Z,57.31
2022-08-01T07:56:40.250Z,55.77
2022-08-01T07:57:40.233Z,57.29
2022-08-01T07:58:40.223Z,58.07
2022-08-01T07:59:40.255Z,53.71
2022-08-01T08:00:40.211Z,56.96
2022-08-01T08:01:40.230Z,52.05
2022-08-01T08:02:40.192Z,53.81
2022-08-01T08:03:40.197Z,59.93
2022-08-01T08:04:40.202Z,52.02
2022-08-01T08:05:58.816Z,55.58
2022-08-01T08:06:41.163Z,60.39
2022-08-01T08:07:40.164Z,56.44
2022-08-01T08:08:40.178Z,60.62
2022-08-01T08:09:40.174Z,57.12
2022-08-01T08:10:40.140Z,52.83
2022-08-01T08:11:43.448Z,50.45
2022-08-01T08:12:41.145Z,54.25
2022-08-01T08:13:40.117Z,55.75
2022-08-01T08:14:40.134Z,59.98
2022-08-01T08:15:40.111Z,57.49
2022-08-01T08:16:40.089Z,57.00
2022-08-01T08:17:40.084Z,61.93
2022-08-01T08:18:40.076Z,58.40
2022-08-01T08:19:40.105Z,59.58
2022-08-01T08:20:40.065Z,57.63
2022-08-01T08:21:40.081Z,61.65
2022-08-01T08:22:40.050Z,62.24
2022-08-01T08:23:41.966Z,55.08
2022-08-01T08:24:45.607Z,57.58
2022-08-01T08:25:41.022Z,56.33
2022-08-01T08:26:40.017Z,53.94
2022-08-01T08:27:40.004Z,55.40
2022-08-01T08:28:40.252Z,55.28
2022-08-01T08:29:40.020Z,54.94
2022-08-01T08:30:39.986Z,55.00
2022-08-01T08:31:52.369Z,51.27
2022-08-01T08:32:40.982Z,57.34
2022-08-01T08:33:39.965Z,55.11
2022-08-01T08:34:39.986Z,55.71
2022-08-01T08:35:40.487Z,57.56
2022-08-01T08:36:40.965Z,50.73
2022-08-01T08:37:47.595Z,58.38
2022-08-01T08:38:40.933Z,59.73
2022-08-01T08:39:41.794Z,51.53
2022-08-01T08:40:40.008Z,49.71
2022-08-01T08:41:40.912Z,53.79
2022-08-01T08:42:39.901Z,56.40
2022-08-01T08:43:39.891Z,53.78
2022-08-01T08:44:39.911Z,60.36
2022-08-01T08:45:58.826Z,55.80
2022-08-01T08:46:40.889Z,58.46
2022-08-01T08:47:39.863Z,58.22
2022-08-01T08:48:39.859Z,53.87
2022-08-01T08:49:39.918Z,53.79
2022-08-01T08:50:39.844Z,54.19
2022-08-01T08:51:39.833Z,51.58
2022-08-01T08:52:39.829Z,59.57
2022-08-01T08:53:39.823Z,53.45
2022-08-01T08:54:39.837Z,55.57
2022-08-01T08:55:56.253Z,56.15
2022-08-01T08:56:40.791Z,57.25
2022-08-01T08:57:39.792Z,54.70
2022-08-01T08:58:39.781Z,54.59
2022-08-01T08:59:39.805Z,56.91
2022-08-01T09:00:39.772Z,55.38
2022-08-01T09:01:39.760Z,55.58
2022-08-01T09:02:39.752Z,57.11
2022-08-01T09:03:39.792Z,52.42
2022-08-01T09:04:39.770Z,55.90
2022-08-01T09:05:39.738Z,57.54
2022-08-01T09:06:39.722Z,56.06
2022-08-01T09:07:39.726Z,55.70
2022-08-01T09:08:39.750Z,54.62
2022-08-01T09:09:41.931Z,53.87
2022-08-01T09:10:39.692Z,58.72
2022-08-01T09:11:39.691Z,55.57
2022-08-01T09:12:39.730Z,56.75
2022-08-01T09:13:45.297Z,58.07
2022-08-01T09:14:40.674Z,55.71
2022-08-01T09:15:39.685Z,55.36
2022-08-01T09:16:39.647Z,55.94
2022-08-01T09:17:39.639Z,57.09
2022-08-01T09:18:39.630Z,59.34
2022-08-01T09:19:41.590Z,56.64
2022-08-01T09:20:39.665Z,55.98
2022-08-01T09:21:39.614Z,57.29
2022-08-01T09:22:39.614Z,56.72
2022-08-01T09:23:40.595Z,57.61
2022-08-01T09:24:40.595Z,59.53
2022-08-01T09:25:46.121Z,59.44
2022-08-01T09:26:40.572Z,57.62
2022-08-01T09:27:44.291Z,59.17
2022-08-01T09:28:42.975Z,57.97
2022-08-01T09:29:41.559Z,60.16
2022-08-01T09:30:39.619Z,57.02
2022-08-01T09:31:39.544Z,58.56
2022-08-01T09:32:39.534Z,57.72
2022-08-01T09:33:39.539Z,60.18
2022-08-01T09:34:39.519Z,60.56
2022-08-01T09:35:43.889Z,53.56
2022-08-01T09:36:39.504Z,56.91
2022-08-01T09:37:39.556Z,56.80
2022-08-01T09:38:42.252Z,55.51
2022-08-01T09:39:40.504Z,52.66
2022-08-01T09:40:39.498Z,53.06
2022-08-01T09:41:40.307Z,54.56
2022-08-01T09:42:39.466Z,54.04
2022-08-01T09:43:39.460Z,53.36
2022-08-01T09:44:40.019Z,54.13
2022-08-01T09:45:41.263Z,51.72
2022-08-01T09:46:40.434Z,53.51
2022-08-01T09:47:39.484Z,55.23
2022-08-01T09:48:39.437Z,58.99
2022-08-01T09:49:51.098Z,51.44
2022-08-01T09:50:40.432Z,49.38
2022-08-01T09:51:58.780Z,51.93
2022-08-01T09:52:41.127Z,54.58
2022-08-01T09:53:39.382Z,53.58
2022-08-01T09:54:40.375Z,58.46
2022-08-01T09:55:39.395Z,53.64
2022-08-01T09:56:39.360Z,55.40
2022-08-01T09:57:39.377Z,54.60
2022-08-01T09:58:39.350Z,55.87
2022-08-01T09:59:57.193Z,54.68
2022-08-01T10:00:45.766Z,57.46
2022-08-01T10:01:40.548Z,59.54
2022-08-01T10:02:39.317Z,78.01
2022-08-01T10:03:39.409Z,60.65
2022-08-01T10:04:39.299Z,57.98
2022-08-01T10:05:39.288Z,54.82
2022-08-01T10:06:39.313Z,53.75
2022-08-01T10:07:43.694Z,53.63
2022-08-01T10:08:40.266Z,56.09
2022-08-01T10:09:40.790Z,54.66
2022-08-01T10:10:39.260Z,56.66
2022-08-01T10:11:39.276Z,54.93
2022-08-01T10:12:39.236Z,53.64
2022-08-01T10:13:40.225Z,49.75
2022-08-01T10:14:39.218Z,59.24
2022-08-01T10:15:39.211Z,57.90
2022-08-01T10:16:39.321Z,57.04
2022-08-01T10:17:50.424Z,60.03
2022-08-01T10:18:40.190Z,58.83
2022-08-01T10:19:39.192Z,54.40
2022-08-01T10:20:39.173Z,56.14
2022-08-01T10:21:47.687Z,55.05
2022-08-01T10:22:40.151Z,55.42
2022-08-01T10:23:39.983Z,57.43
2022-08-01T10:24:39.145Z,53.35
2022-08-01T10:25:42.851Z,51.77
2022-08-01T10:26:39.157Z,53.08
2022-08-01T10:27:39.699Z,51.95
2022-08-01T10:28:39.463Z,57.03
2022-08-01T10:29:45.678Z,55.26
2022-08-01T10:30:40.091Z,55.93
2022-08-01T10:31:39.117Z,57.67
2022-08-01T10:32:39.664Z,56.50
2022-08-01T10:33:51.114Z,52.65
2022-08-01T10:34:40.565Z,53.43
2022-08-01T10:35:47.187Z,52.88
2022-08-01T10:36:41.014Z,52.13
2022-08-01T10:37:52.514Z,56.90
2022-08-01T10:38:40.031Z,53.48
2022-08-01T10:39:39.026Z,50.04
2022-08-01T10:40:39.016Z,56.17
2022-08-01T10:41:41.540Z,53.11
2022-08-01T10:42:39.006Z,52.70
2022-08-01T10:43:39.007Z,54.27
2022-08-01T10:44:38.987Z,51.81
2022-08-01T10:45:38.988Z,56.63
2022-08-01T10:46:38.997Z,57.51
2022-08-01T10:47:52.144Z,54.31
2022-08-01T10:48:39.956Z,55.15
2022-08-01T10:49:39.011Z,54.74
2022-08-01T10:50:38.946Z,52.80
2022-08-01T10:51:51.981Z,57.07
2022-08-01T10:52:39.917Z,57.56
2022-08-01T10:53:42.636Z,56.99
2022-08-01T10:54:38.917Z,51.84
2022-08-01T10:55:39.905Z,55.27
2022-08-01T10:56:38.932Z,55.41
2022-08-01T10:57:38.897Z,54.95
2022-08-01T10:58:42.697Z,55.30
2022-08-01T10:59:50.312Z,55.15
2022-08-01T11:00:39.878Z,51.44
2022-08-01T11:01:39.001Z,50.23
2022-08-01T11:02:39.872Z,48.73
2022-08-01T11:03:56.765Z,54.91
2022-08-01T11:04:40.851Z,52.92
2022-08-01T11:05:38.840Z,54.39
2022-08-01T11:06:38.850Z,59.19
2022-08-01T11:07:38.821Z,56.77
2022-08-01T11:08:38.812Z,58.85
2022-08-01T11:09:38.833Z,57.90
2022-08-01T11:10:39.030Z,58.00
2022-08-01T11:11:38.819Z,56.92
2022-08-01T11:12:38.780Z,55.28
2022-08-01T11:13:38.774Z,54.04
2022-08-01T11:14:55.138Z,57.21
2022-08-01T11:15:50.094Z,55.42
2022-08-01T11:16:39.779Z,53.71
2022-08-01T11:17:42.116Z,56.39
2022-08-01T11:18:38.735Z,58.47
2022-08-01T11:19:38.742Z,51.80
2022-08-01T11:20:41.968Z,53.69
2022-08-01T11:21:59.092Z,51.49
2022-08-01T11:22:39.699Z,55.02
2022-08-01T11:23:38.697Z,53.62
2022-08-01T11:24:38.691Z,56.58
2022-08-01T11:26:05.146Z,53.12
2022-08-01T11:26:39.701Z,48.41
2022-08-01T11:27:38.677Z,48.42
2022-08-01T11:28:40.624Z,55.00
2022-08-01T11:29:39.652Z,51.83
2022-08-01T11:30:38.654Z,49.73
2022-08-01T11:31:38.634Z,51.04
2022-08-01T11:32:58.651Z,53.24
2022-08-01T11:33:40.617Z,58.84
2022-08-01T11:34:38.610Z,57.35
2022-08-01T11:35:38.605Z,59.07
2022-08-01T11:37:03.404Z,53.66
2022-08-01T11:37:40.615Z,57.77
2022-08-01T11:38:38.578Z,54.22
2022-08-01T11:39:39.043Z,55.25
2022-08-01T11:40:39.565Z,57.20
2022-08-01T11:41:39.507Z,60.18
2022-08-01T11:42:39.588Z,58.50
2022-08-01T11:43:38.562Z,54.90
2022-08-01T11:44:38.547Z,57.31
2022-08-01T11:45:38.527Z,54.16
2022-08-01T11:46:38.529Z,54.06
2022-08-01T11:47:38.538Z,52.27
2022-08-01T11:48:38.506Z,55.11
2022-08-01T11:49:39.231Z,56.07
2022-08-01T11:50:38.992Z,58.25
2022-08-01T11:51:38.485Z,56.82
2022-08-01T11:52:38.497Z,57.96
2022-08-01T11:53:38.468Z,56.22
2022-08-01T11:54:38.465Z,56.56
2022-08-01T11:55:38.469Z,50.18
2022-08-01T11:56:42.888Z,50.53
2022-08-01T11:57:40.468Z,54.10
2022-08-01T11:58:38.433Z,49.57
2022-08-01T11:59:41.137Z,52.14
2022-08-01T12:00:38.416Z,50.98
2022-08-01T12:01:39.406Z,56.38
2022-08-01T12:02:38.458Z,60.04
2022-08-01T12:03:38.396Z,52.37
2022-08-01T12:04:38.388Z,49.81
2022-08-01T12:05:43.236Z,49.93
2022-08-01T12:06:39.373Z,53.66
2022-08-01T12:07:38.397Z,55.84
2022-08-01T12:08:38.356Z,53.73
2022-08-01T12:09:38.348Z,54.20
2022-08-01T12:10:49.526Z,56.46
2022-08-01T12:11:39.333Z,52.60
2022-08-01T12:12:38.362Z,52.34
2022-08-01T12:13:38.319Z,57.09
2022-08-01T12:14:38.316Z,51.97
2022-08-01T12:15:38.309Z,56.69
2022-08-01T12:16:38.299Z,54.28
2022-08-01T12:17:38.313Z,57.03
2022-08-01T12:18:38.309Z,75.39
2022-08-01T12:19:38.281Z,60.14
2022-08-01T12:20:40.130Z,54.19
2022-08-01T12:21:38.251Z,53.31
2022-08-01T12:22:39.258Z,51.23
2022-08-01T12:23:38.274Z,52.41
2022-08-01T12:24:38.239Z,53.32
2022-08-01T12:25:38.252Z,51.11
2022-08-01T12:26:38.224Z,48.13
2022-08-01T12:27:38.212Z,52.13
2022-08-01T12:28:38.232Z,54.93
2022-08-01T12:29:38.205Z,50.37
2022-08-01T12:30:38.239Z,49.65
2022-08-01T12:31:38.185Z,51.36
2022-08-01T12:32:38.194Z,49.99
2022-08-01T12:33:38.192Z,51.65
2022-08-01T12:34:38.159Z,50.89
2022-08-01T12:35:38.154Z,51.22
2022-08-01T12:36:38.147Z,49.92
2022-08-01T12:37:38.137Z,50.21
2022-08-01T12:38:38.158Z,59.23
2022-08-01T12:39:38.407Z,59.82
2022-08-01T12:40:40.933Z,58.05
2022-08-01T12:41:39.110Z,49.73
2022-08-01T12:42:38.096Z,61.05
2022-08-01T12:43:38.140Z,54.63
2022-08-01T12:44:38.085Z,56.52
2022-08-01T12:45:38.077Z,58.22
2022-08-01T12:46:41.494Z,57.54
2022-08-01T12:47:40.066Z,55.90
2022-08-01T12:48:38.080Z,55.61
2022-08-01T12:49:38.115Z,55.27
2022-08-01T12:50:38.049Z,54.03
2022-08-01T12:51:38.040Z,53.42
2022-08-01T12:52:38.034Z,54.55